Terminal Aerodrome Forecast
Issued by NWS

Home | Current Version | Previous Version | Text Only | Print | Product List | Glossary Off
Versions: 1 2 3 4 5 6 7 8 9 10 11 12 13 14 15 16 17 18 19 20 21 22 23 24 25 26 27 28 29 30 31 32 33 34 35 36 37 38 39

291
FTUS43 KGRB 232327
TAFATW
TAF
KATW 232327Z 2400/2424 30004KT P6SM SCT120 OVC250
     FM240300 32008KT P6SM VCSH SCT035 BKN080
      TEMPO 2403/2406 5SM -RA BR BKN035
     FM240600 32010KT 5SM -RA BR SCT012 OVC025
     FM240800 31012G20KT 4SM -RA BR SCT006 OVC012
      TEMPO 2408/2412 2SM RA BR OVC006
     FM241500 30020G32KT 6SM -SHRA BR OVC020
     FM241800 31023G35KT P6SM SCT022 OVC035
      TEMPO 2418/2422 5SM -SHRA BR BKN022=

USA.gov is the U.S. government's official web portal to all federal, state and local government web resources and services.